Detall de PIREP

Printer-friendly versionPDF version

[2010/07/26 17:18:00]
Flight IATA:CT3110
Pilot Number:016
Company ICAO:CAT
Aircraft Type:B738/F
PAX:123
Departing Airport: LEBL
Destination Airport: LEPA
Alternate Airport:LEBL
Online: VATSIM
Route:LARPA B31 TOLSO
Flight Level:FL190
No Slew and time accel
No pause
Crash detect
Detect pilot in Cockpit between each 30 and 45 minutes
17:18 Zero fuel Weight: 118702 Lbs, Fuel Weight: 8604 Lbs
17:18 VATSIM:LEBL 261630Z 18007KT 150V240 9999 FEW045 26/18 Q1014 NOSIG
17:18 VATSIM:LEPA 261630Z 08009KT 050V120 9999 -RA FEW025 SCT045 26/19 Q1014 NOSIG
17:22 Parking Brakes off
17:30 Take-off
17:30 Take off Weight: 126347 Lbs
17:30 Wind: 172º @ 006 Knots Heading: 242º
17:30 POS N41º 17´ 54´´ E002º 04´ 57´´
17:30 Flaps:3 at 149 Knots
17:31 Gear Up: 150 Knots
17:31 Flaps:2 at 179 Knots
17:32 Flaps:1 at 241 Knots
17:32 Flaps:0 at 246 Knots
17:38 TOC
17:38 Fuel Weight: 5831 Lb

17:45 Wind:119º@009 Knots Heading: 164º Ground Speed: 358 Knots Altitude 18940 ft
17:45 TOD
17:45 Fuel Weight: 5243 Lb
17:49 Flaps:1 at 252 Knots
17:54 Flaps:2 at 205 Knots
17:54 Flaps:3 at 194 Knots
17:54 Flaps:4 at 191 Knots
17:54 Flaps:5 at 168 Knots
17:55 Flaps:6 at 155 Knots
17:55 Flaps:7 at 148 Knots
17:55 Flaps:8 at 141 Knots
17:56 Gear Down: 134 Knots
17:59 TouchDown:Rate -186 ft/min Speed: 127 Knots
17:59 VATSIM:LEPA 261800Z 11005KT 080V140 9999 FEW025 SCT052 26/20 Q1015 NOSIG
17:59 Land
17:59 Wind:133º@005 Knots
17:59 Heading: 057º
17:59 Flight Duration: 00:29
17:59 Landing Weight: 123072 Lbs
17:59 POS N39º 33´ 18´´ E002º 43´ 39´´
18:04 Parking brakes on
18:04 Block to Block Duration: 00:42
18:04 Final Fuel: 3966 Lbls
18:04 Spent Fuel: 4638 Lbls
18:04 Flight Length: 133 NM
18:04 TOD Land Length: 55 NM

Exportar CSV

Powered by Drupal - Modified by Danger4k